Vitsentzos Kornaros — SXNX — position and weather

sailwx.info

Track history (hours):
 
Tides and Currents Weather Stations Pressure Air Temp Water Temp Dewpoint Dewpoint Depression Visibility Wind Speed Wind Dir Waves Ship Positions

Vitsentzos Kornaros

Last reported at 2014-Oct-31 09:33 UTC. Time now 2014-Oct-31 10:32 UTC.
Position N 37°57' E 023°38'.

Length 128 m; draft 4.5 m.

Type: Passenger vessel. MMSI: 239311000.

Date/timePositionNaut miles runAvg speedWind from/ knotsBaromVisibWave heightAir tempDewpointWater temp
2014-Oct-31 09:33N 37°57' E 023°38'0 0.0
2014-Oct-31 08:33N 37°57' E 023°38'0 0.0
2014-Oct-31 07:33N 37°57' E 023°38'0 0.0
2014-Oct-31 06:33N 37°57' E 023°38'2 1.7
2014-Oct-31 05:33N 37°56' E 023°37'1010.3
2014-Oct-31 04:33N 37°46' E 023°42'1211.4
2014-Oct-31 03:28N 37°34' E 023°42'2812.6
2014-Oct-31 01:14N 37°08' E 023°29'1313.2
2014-Oct-31 00:13N 36°55' E 023°23'  
2014-Oct-27 17:29N 37°28' E 023°39'1213.0
2014-Oct-27 16:33N 37°40' E 023°42'1313.4
2014-Oct-27 15:33N 37°53' E 023°37'4 4.3
2014-Oct-27 14:33N 37°57' E 023°38'0 0.0
2014-Oct-27 13:33N 37°57' E 023°38'0 0.0
2014-Oct-27 12:33N 37°57' E 023°38'0 0.0
2014-Oct-27 11:33N 37°57' E 023°38'0 0.0
2014-Oct-27 10:33N 37°57' E 023°38'0 0.0
2014-Oct-27 09:33N 37°57' E 023°38'0 0.0
2014-Oct-27 08:33N 37°57' E 023°38'0 0.0
2014-Oct-27 07:33N 37°57' E 023°38'0 0.0
2014-Oct-27 06:33N 37°57' E 023°38'9 9.2
2014-Oct-27 05:33N 37°48' E 023°42'1212.2
2014-Oct-27 04:33N 37°36' E 023°43'  
2014-Oct-24 20:33N 36°58' E 023°27'3611.8
2014-Oct-24 17:33N 37°32' E 023°41'10 9.8
2014-Oct-24 16:33N 37°42' E 023°42'1111.2
2014-Oct-24 15:33N 37°53' E 023°37'5 4.6
2014-Oct-24 14:33N 37°57' E 023°38'0 0.0
2014-Oct-24 13:33N 37°57' E 023°38'0 0.0
2014-Oct-24 12:33N 37°57' E 023°38'0 0.0
2014-Oct-24 11:33N 37°57' E 023°38'0 0.0
2014-Oct-24 10:33N 37°57' E 023°38'0 0.0
2014-Oct-24 09:33N 37°57' E 023°38'0 0.0
2014-Oct-24 08:33N 37°57' E 023°38'0 0.0
2014-Oct-24 07:33N 37°57' E 023°38'0 0.0
2014-Oct-24 06:33N 37°57' E 023°38'0 0.0
2014-Oct-24 05:33N 37°57' E 023°38'0 0.0
2014-Oct-24 04:33N 37°57' E 023°38'5 4.9
2014-Oct-24 03:33N 37°52' E 023°39'1313.2
2014-Oct-24 02:33N 37°40' E 023°45'3413.9
2014-Oct-24 00:06N 37°08' E 023°29'  
Track history (hours):
 
Tides and Currents Weather Stations Pressure Air Temp Water Temp Dewpoint Dewpoint Depression Visibility Wind Speed Wind Dir Waves Ship Positions

Vitsentzos Kornaros

Last reported at 2014-Oct-31 09:33 UTC. Time now 2014-Oct-31 10:32 UTC.
Position N 37°57' E 023°38'.

Length 128 m; draft 4.5 m.

Type: Passenger vessel. MMSI: 239311000.

Date/timePositionNaut miles runAvg speedWind from/ knotsBaromVisibWave heightAir tempDewpointWater temp
2014-Oct-31 09:33N 37°57' E 023°38'0 0.0
2014-Oct-31 08:33N 37°57' E 023°38'0 0.0
2014-Oct-31 07:33N 37°57' E 023°38'0 0.0
2014-Oct-31 06:33N 37°57' E 023°38'2 1.7
2014-Oct-31 05:33N 37°56' E 023°37'1010.3
2014-Oct-31 04:33N 37°46' E 023°42'1211.4
2014-Oct-31 03:28N 37°34' E 023°42'2812.6
2014-Oct-31 01:14N 37°08' E 023°29'1313.2
2014-Oct-31 00:13N 36°55' E 023°23'  
2014-Oct-27 17:29N 37°28' E 023°39'1213.0
2014-Oct-27 16:33N 37°40' E 023°42'1313.4
2014-Oct-27 15:33N 37°53' E 023°37'4 4.3
2014-Oct-27 14:33N 37°57' E 023°38'0 0.0
2014-Oct-27 13:33N 37°57' E 023°38'0 0.0
2014-Oct-27 12:33N 37°57' E 023°38'0 0.0
2014-Oct-27 11:33N 37°57' E 023°38'0 0.0
2014-Oct-27 10:33N 37°57' E 023°38'0 0.0
2014-Oct-27 09:33N 37°57' E 023°38'0 0.0
2014-Oct-27 08:33N 37°57' E 023°38'0 0.0
2014-Oct-27 07:33N 37°57' E 023°38'0 0.0
2014-Oct-27 06:33N 37°57' E 023°38'9 9.2
2014-Oct-27 05:33N 37°48' E 023°42'1212.2
2014-Oct-27 04:33N 37°36' E 023°43'  
2014-Oct-24 20:33N 36°58' E 023°27'3611.8
2014-Oct-24 17:33N 37°32' E 023°41'10 9.8
2014-Oct-24 16:33N 37°42' E 023°42'1111.2
2014-Oct-24 15:33N 37°53' E 023°37'5 4.6
2014-Oct-24 14:33N 37°57' E 023°38'0 0.0
2014-Oct-24 13:33N 37°57' E 023°38'0 0.0
2014-Oct-24 12:33N 37°57' E 023°38'0 0.0
2014-Oct-24 11:33N 37°57' E 023°38'0 0.0
2014-Oct-24 10:33N 37°57' E 023°38'0 0.0
2014-Oct-24 09:33N 37°57' E 023°38'0 0.0
2014-Oct-24 08:33N 37°57' E 023°38'0 0.0
2014-Oct-24 07:33N 37°57' E 023°38'0 0.0
2014-Oct-24 06:33N 37°57' E 023°38'0 0.0
2014-Oct-24 05:33N 37°57' E 023°38'0 0.0
2014-Oct-24 04:33N 37°57' E 023°38'5 4.9
2014-Oct-24 03:33N 37°52' E 023°39'1313.2
2014-Oct-24 02:33N 37°40' E 023°45'3413.9
2014-Oct-24 00:06N 37°08' E 023°29'  

Dump ship's entire track history